sensor_id;sensor_type;location;lat;lon;timestamp;P1;durP1;ratioP1;P2;durP2;ratioP2
66739;SDS011;53653;52.188;8.602;2022-09-23T00:00:17;11.40;;;5.77;;
66739;SDS011;53653;52.188;8.602;2022-09-23T00:02:44;11.13;;;6.00;;
66739;SDS011;53653;52.188;8.602;2022-09-23T00:05:12;13.43;;;6.07;;
66739;SDS011;53653;52.188;8.602;2022-09-23T00:07:38;11.68;;;5.60;;
66739;SDS011;53653;52.188;8.602;2022-09-23T00:10:04;11.80;;;5.97;;
66739;SDS011;53653;52.188;8.602;2022-09-23T00:12:30;12.57;;;5.90;;
66739;SDS011;53653;52.188;8.602;2022-09-23T00:14:55;12.27;;;5.77;;
66739;SDS011;53653;52.188;8.602;2022-09-23T00:17:20;10.83;;;5.53;;
66739;SDS011;53653;52.188;8.602;2022-09-23T00:19:47;11.80;;;5.43;;
66739;SDS011;53653;52.188;8.602;2022-09-23T00:22:13;12.85;;;5.70;;
66739;SDS011;53653;52.188;8.602;2022-09-23T00:24:39;10.47;;;5.70;;
66739;SDS011;53653;52.188;8.602;2022-09-23T00:27:04;12.45;;;5.65;;
66739;SDS011;53653;52.188;8.602;2022-09-23T00:29:30;10.17;;;5.70;;
66739;SDS011;53653;52.188;8.602;2022-09-23T00:31:56;11.50;;;5.73;;
66739;SDS011;53653;52.188;8.602;2022-09-23T00:34:21;11.60;;;5.57;;
66739;SDS011;53653;52.188;8.602;2022-09-23T00:36:47;12.10;;;5.80;;
66739;SDS011;53653;52.188;8.602;2022-09-23T00:39:13;14.15;;;5.20;;
66739;SDS011;53653;52.188;8.602;2022-09-23T00:41:38;11.43;;;5.90;;
66739;SDS011;53653;52.188;8.602;2022-09-23T00:47:11;12.07;;;5.25;;
66739;SDS011;53653;52.188;8.602;2022-09-23T00:49:43;10.37;;;5.37;;
66739;SDS011;53653;52.188;8.602;2022-09-23T00:52:12;11.30;;;5.70;;
66739;SDS011;53653;52.188;8.602;2022-09-23T00:54:41;10.50;;;5.30;;
66739;SDS011;53653;52.188;8.602;2022-09-23T00:57:10;11.00;;;5.35;;
66739;SDS011;53653;52.188;8.602;2022-09-23T00:59:39;13.10;;;6.07;;
66739;SDS011;53653;52.188;8.602;2022-09-23T01:02:05;13.97;;;7.13;;
66739;SDS011;53653;52.188;8.602;2022-09-23T01:04:34;10.15;;;5.38;;
66739;SDS011;53653;52.188;8.602;2022-09-23T01:07:00;10.70;;;5.25;;
66739;SDS011;53653;52.188;8.602;2022-09-23T01:09:25;10.67;;;5.10;;
66739;SDS011;53653;52.188;8.602;2022-09-23T01:11:56;10.25;;;4.60;;
66739;SDS011;53653;52.188;8.602;2022-09-23T01:17:19;10.80;;;4.97;;
66739;SDS011;53653;52.188;8.602;2022-09-23T01:25:36;10.60;;;4.95;;
66739;SDS011;53653;52.188;8.602;2022-09-23T01:33:42;10.25;;;5.03;;
66739;SDS011;53653;52.188;8.602;2022-09-23T01:36:32;8.73;;;4.82;;
66739;SDS011;53653;52.188;8.602;2022-09-23T01:39:07;10.60;;;5.10;;
66739;SDS011;53653;52.188;8.602;2022-09-23T01:41:53;10.80;;;5.20;;
66739;SDS011;53653;52.188;8.602;2022-09-23T01:44:40;12.20;;;4.97;;
66739;SDS011;53653;52.188;8.602;2022-09-23T01:47:16;10.48;;;5.47;;
66739;SDS011;53653;52.188;8.602;2022-09-23T01:49:50;11.27;;;5.50;;
66739;SDS011;53653;52.188;8.602;2022-09-23T02:00:21;11.93;;;6.45;;
66739;SDS011;53653;52.188;8.602;2022-09-23T02:02:49;12.30;;;5.90;;
66739;SDS011;53653;52.188;8.602;2022-09-23T02:05:32;11.10;;;5.60;;
66739;SDS011;53653;52.188;8.602;2022-09-23T02:08:11;11.23;;;5.37;;
66739;SDS011;53653;52.188;8.602;2022-09-23T02:10:46;10.18;;;5.45;;
66739;SDS011;53653;52.188;8.602;2022-09-23T02:13:14;11.57;;;5.72;;
66739;SDS011;53653;52.188;8.602;2022-09-23T02:15:48;11.45;;;5.80;;
66739;SDS011;53653;52.188;8.602;2022-09-23T02:18:23;9.80;;;5.53;;
66739;SDS011;53653;52.188;8.602;2022-09-23T02:20:54;12.87;;;5.67;;
66739;SDS011;53653;52.188;8.602;2022-09-23T02:23:26;12.57;;;5.82;;
66739;SDS011;53653;52.188;8.602;2022-09-23T02:28:38;13.82;;;6.32;;
66739;SDS011;53653;52.188;8.602;2022-09-23T02:31:17;10.50;;;4.85;;
66739;SDS011;53653;52.188;8.602;2022-09-23T02:33:56;11.23;;;5.53;;
66739;SDS011;53653;52.188;8.602;2022-09-23T02:36:43;10.52;;;5.30;;
66739;SDS011;53653;52.188;8.602;2022-09-23T02:39:10;10.25;;;5.50;;
66739;SDS011;53653;52.188;8.602;2022-09-23T02:46:30;10.43;;;5.93;;
66739;SDS011;53653;52.188;8.602;2022-09-23T02:48:58;9.07;;;5.20;;
66739;SDS011;53653;52.188;8.602;2022-09-23T02:51:28;12.73;;;5.40;;
66739;SDS011;53653;52.188;8.602;2022-09-23T02:53:56;12.00;;;5.15;;
66739;SDS011;53653;52.188;8.602;2022-09-23T02:56:22;10.30;;;4.82;;
66739;SDS011;53653;52.188;8.602;2022-09-23T02:58:48;10.90;;;4.97;;
66739;SDS011;53653;52.188;8.602;2022-09-23T03:06:56;8.90;;;4.78;;
66739;SDS011;53653;52.188;8.602;2022-09-23T03:09:26;10.47;;;4.50;;
66739;SDS011;53653;52.188;8.602;2022-09-23T03:20:35;10.10;;;4.82;;
66739;SDS011;53653;52.188;8.602;2022-09-23T03:23:02;11.40;;;5.07;;
66739;SDS011;53653;52.188;8.602;2022-09-23T03:25:33;10.57;;;4.78;;
66739;SDS011;53653;52.188;8.602;2022-09-23T03:28:00;12.02;;;4.95;;
66739;SDS011;53653;52.188;8.602;2022-09-23T03:30:27;9.05;;;4.50;;
66739;SDS011;53653;52.188;8.602;2022-09-23T03:32:53;15.40;;;4.90;;
66739;SDS011;53653;52.188;8.602;2022-09-23T03:35:24;11.93;;;4.97;;
66739;SDS011;53653;52.188;8.602;2022-09-23T03:38:08;8.77;;;4.50;;
66739;SDS011;53653;52.188;8.602;2022-09-23T03:40:42;10.20;;;4.82;;
66739;SDS011;53653;52.188;8.602;2022-09-23T03:43:11;10.43;;;5.03;;
66739;SDS011;53653;52.188;8.602;2022-09-23T03:45:38;10.55;;;5.32;;
66739;SDS011;53653;52.188;8.602;2022-09-23T03:48:05;8.10;;;4.63;;
66739;SDS011;53653;52.188;8.602;2022-09-23T03:50:31;9.98;;;4.97;;
66739;SDS011;53653;52.188;8.602;2022-09-23T03:52:56;11.02;;;4.82;;
66739;SDS011;53653;52.188;8.602;2022-09-23T03:55:22;9.40;;;5.13;;
66739;SDS011;53653;52.188;8.602;2022-09-23T03:57:48;9.07;;;5.20;;
66739;SDS011;53653;52.188;8.602;2022-09-23T04:00:13;10.70;;;4.90;;
66739;SDS011;53653;52.188;8.602;2022-09-23T04:02:39;11.00;;;5.20;;
66739;SDS011;53653;52.188;8.602;2022-09-23T04:05:06;11.43;;;5.17;;
66739;SDS011;53653;52.188;8.602;2022-09-23T04:07:33;10.45;;;4.85;;
66739;SDS011;53653;52.188;8.602;2022-09-23T04:09:58;10.93;;;5.20;;
66739;SDS011;53653;52.188;8.602;2022-09-23T04:12:24;12.27;;;5.40;;
66739;SDS011;53653;52.188;8.602;2022-09-23T04:14:49;10.50;;;5.17;;
66739;SDS011;53653;52.188;8.602;2022-09-23T04:17:14;9.80;;;5.10;;
66739;SDS011;53653;52.188;8.602;2022-09-23T04:19:40;12.93;;;5.90;;
66739;SDS011;53653;52.188;8.602;2022-09-23T04:22:06;11.30;;;5.67;;
66739;SDS011;53653;52.188;8.602;2022-09-23T04:24:32;15.57;;;5.60;;
66739;SDS011;53653;52.188;8.602;2022-09-23T04:26:57;11.97;;;5.47;;
66739;SDS011;53653;52.188;8.602;2022-09-23T04:29:23;9.95;;;5.25;;
66739;SDS011;53653;52.188;8.602;2022-09-23T04:31:50;11.40;;;5.10;;
66739;SDS011;53653;52.188;8.602;2022-09-23T04:34:16;9.67;;;5.30;;
66739;SDS011;53653;52.188;8.602;2022-09-23T04:36:45;12.20;;;5.45;;
66739;SDS011;53653;52.188;8.602;2022-09-23T04:39:12;12.40;;;5.13;;
66739;SDS011;53653;52.188;8.602;2022-09-23T04:41:39;11.15;;;4.90;;
66739;SDS011;53653;52.188;8.602;2022-09-23T04:44:05;14.20;;;6.18;;
66739;SDS011;53653;52.188;8.602;2022-09-23T04:46:31;15.20;;;5.47;;
66739;SDS011;53653;52.188;8.602;2022-09-23T04:48:56;13.67;;;6.00;;
66739;SDS011;53653;52.188;8.602;2022-09-23T04:51:22;17.88;;;6.70;;
66739;SDS011;53653;52.188;8.602;2022-09-23T04:53:50;15.57;;;6.43;;
66739;SDS011;53653;52.188;8.602;2022-09-23T04:56:17;14.23;;;5.83;;
66739;SDS011;53653;52.188;8.602;2022-09-23T04:58:44;11.35;;;5.90;;
66739;SDS011;53653;52.188;8.602;2022-09-23T05:01:11;9.93;;;5.22;;
66739;SDS011;53653;52.188;8.602;2022-09-23T05:03:41;15.35;;;5.53;;
66739;SDS011;53653;52.188;8.602;2022-09-23T05:06:08;11.02;;;5.60;;
66739;SDS011;53653;52.188;8.602;2022-09-23T05:08:37;12.80;;;5.30;;
66739;SDS011;53653;52.188;8.602;2022-09-23T05:11:10;13.90;;;6.15;;
66739;SDS011;53653;52.188;8.602;2022-09-23T05:13:35;11.17;;;5.50;;
66739;SDS011;53653;52.188;8.602;2022-09-23T05:16:02;11.00;;;5.20;;
66739;SDS011;53653;52.188;8.602;2022-09-23T05:18:35;11.18;;;5.97;;
66739;SDS011;53653;52.188;8.602;2022-09-23T05:21:05;12.70;;;5.30;;
66739;SDS011;53653;52.188;8.602;2022-09-23T05:23:31;10.57;;;5.13;;
66739;SDS011;53653;52.188;8.602;2022-09-23T05:25:57;12.20;;;6.10;;
66739;SDS011;53653;52.188;8.602;2022-09-23T05:28:25;9.98;;;5.30;;
66739;SDS011;53653;52.188;8.602;2022-09-23T05:31:00;14.27;;;5.25;;
66739;SDS011;53653;52.188;8.602;2022-09-23T05:33:46;13.55;;;6.43;;
66739;SDS011;53653;52.188;8.602;2022-09-23T05:36:14;12.23;;;5.17;;
66739;SDS011;53653;52.188;8.602;2022-09-23T05:38:41;13.15;;;5.38;;
66739;SDS011;53653;52.188;8.602;2022-09-23T05:41:09;11.10;;;5.28;;
66739;SDS011;53653;52.188;8.602;2022-09-23T05:43:36;11.30;;;5.70;;
66739;SDS011;53653;52.188;8.602;2022-09-23T05:46:06;9.10;;;5.30;;
66739;SDS011;53653;52.188;8.602;2022-09-23T05:48:35;12.25;;;5.80;;
66739;SDS011;53653;52.188;8.602;2022-09-23T05:51:02;10.32;;;5.22;;
66739;SDS011;53653;52.188;8.602;2022-09-23T05:53:28;12.45;;;5.38;;
66739;SDS011;53653;52.188;8.602;2022-09-23T05:55:55;9.80;;;5.00;;
66739;SDS011;53653;52.188;8.602;2022-09-23T05:58:21;10.17;;;4.97;;
66739;SDS011;53653;52.188;8.602;2022-09-23T06:00:48;12.02;;;5.32;;
66739;SDS011;53653;52.188;8.602;2022-09-23T06:03:15;10.18;;;5.43;;
66739;SDS011;53653;52.188;8.602;2022-09-23T06:05:42;10.48;;;5.03;;
66739;SDS011;53653;52.188;8.602;2022-09-23T06:08:07;12.17;;;5.03;;
66739;SDS011;53653;52.188;8.602;2022-09-23T06:10:37;10.07;;;5.20;;
66739;SDS011;53653;52.188;8.602;2022-09-23T06:13:06;11.23;;;5.35;;
66739;SDS011;53653;52.188;8.602;2022-09-23T06:15:33;11.77;;;5.90;;
66739;SDS011;53653;52.188;8.602;2022-09-23T06:17:58;12.88;;;5.90;;
66739;SDS011;53653;52.188;8.602;2022-09-23T06:20:24;9.97;;;5.30;;
66739;SDS011;53653;52.188;8.602;2022-09-23T06:22:50;10.07;;;5.78;;
66739;SDS011;53653;52.188;8.602;2022-09-23T06:25:16;13.50;;;6.03;;
66739;SDS011;53653;52.188;8.602;2022-09-23T06:27:43;13.35;;;5.63;;
66739;SDS011;53653;52.188;8.602;2022-09-23T06:30:09;13.20;;;5.47;;
66739;SDS011;53653;52.188;8.602;2022-09-23T06:32:34;14.07;;;5.80;;
66739;SDS011;53653;52.188;8.602;2022-09-23T06:35:00;16.87;;;9.07;;
66739;SDS011;53653;52.188;8.602;2022-09-23T06:37:25;17.00;;;8.67;;
66739;SDS011;53653;52.188;8.602;2022-09-23T06:39:51;13.00;;;6.87;;
66739;SDS011;53653;52.188;8.602;2022-09-23T06:42:18;11.55;;;6.80;;
66739;SDS011;53653;52.188;8.602;2022-09-23T06:44:44;14.63;;;5.10;;
66739;SDS011;53653;52.188;8.602;2022-09-23T06:47:09;8.98;;;4.78;;
66739;SDS011;53653;52.188;8.602;2022-09-23T06:49:34;7.73;;;4.70;;
66739;SDS011;53653;52.188;8.602;2022-09-23T06:52:00;11.98;;;5.40;;
66739;SDS011;53653;52.188;8.602;2022-09-23T06:54:26;13.13;;;5.10;;
66739;SDS011;53653;52.188;8.602;2022-09-23T06:56:53;7.78;;;4.43;;
66739;SDS011;53653;52.188;8.602;2022-09-23T06:59:19;10.38;;;4.70;;
66739;SDS011;53653;52.188;8.602;2022-09-23T07:01:44;9.97;;;5.10;;
66739;SDS011;53653;52.188;8.602;2022-09-23T07:04:12;9.93;;;4.57;;
66739;SDS011;53653;52.188;8.602;2022-09-23T07:06:37;10.50;;;5.20;;
66739;SDS011;53653;52.188;8.602;2022-09-23T07:09:04;9.55;;;4.68;;
66739;SDS011;53653;52.188;8.602;2022-09-23T07:11:30;9.20;;;4.68;;
66739;SDS011;53653;52.188;8.602;2022-09-23T07:13:56;8.70;;;4.73;;
66739;SDS011;53653;52.188;8.602;2022-09-23T07:16:21;17.83;;;12.97;;
66739;SDS011;53653;52.188;8.602;2022-09-23T07:18:47;10.67;;;5.07;;
66739;SDS011;53653;52.188;8.602;2022-09-23T07:21:13;9.70;;;5.03;;
66739;SDS011;53653;52.188;8.602;2022-09-23T07:23:41;9.85;;;5.20;;
66739;SDS011;53653;52.188;8.602;2022-09-23T07:26:10;10.20;;;4.60;;
66739;SDS011;53653;52.188;8.602;2022-09-23T07:28:36;11.43;;;4.97;;
66739;SDS011;53653;52.188;8.602;2022-09-23T07:31:06;9.43;;;4.82;;
66739;SDS011;53653;52.188;8.602;2022-09-23T07:33:36;10.80;;;5.30;;
66739;SDS011;53653;52.188;8.602;2022-09-23T07:36:07;11.23;;;7.32;;
66739;SDS011;53653;52.188;8.602;2022-09-23T07:38:44;10.77;;;5.50;;
66739;SDS011;53653;52.188;8.602;2022-09-23T07:41:11;13.48;;;5.22;;
66739;SDS011;53653;52.188;8.602;2022-09-23T07:43:38;10.43;;;4.68;;
66739;SDS011;53653;52.188;8.602;2022-09-23T07:46:05;11.60;;;5.45;;
66739;SDS011;53653;52.188;8.602;2022-09-23T07:48:33;10.73;;;4.85;;
66739;SDS011;53653;52.188;8.602;2022-09-23T07:51:04;10.70;;;5.00;;
66739;SDS011;53653;52.188;8.602;2022-09-23T07:53:37;10.30;;;5.45;;
66739;SDS011;53653;52.188;8.602;2022-09-23T07:56:03;8.68;;;4.80;;
66739;SDS011;53653;52.188;8.602;2022-09-23T07:58:30;10.38;;;4.80;;
66739;SDS011;53653;52.188;8.602;2022-09-23T08:01:09;12.63;;;5.43;;
66739;SDS011;53653;52.188;8.602;2022-09-23T08:03:35;10.97;;;5.00;;
66739;SDS011;53653;52.188;8.602;2022-09-23T08:08:33;8.35;;;4.30;;
66739;SDS011;53653;52.188;8.602;2022-09-23T08:11:03;10.40;;;4.10;;
66739;SDS011;53653;52.188;8.602;2022-09-23T08:13:29;9.82;;;3.75;;
66739;SDS011;53653;52.188;8.602;2022-09-23T08:15:56;7.63;;;3.30;;
66739;SDS011;53653;52.188;8.602;2022-09-23T08:18:22;8.00;;;3.63;;
66739;SDS011;53653;52.188;8.602;2022-09-23T08:20:48;7.23;;;3.60;;
66739;SDS011;53653;52.188;8.602;2022-09-23T08:23:14;7.57;;;3.60;;
66739;SDS011;53653;52.188;8.602;2022-09-23T08:25:40;10.03;;;3.80;;
66739;SDS011;53653;52.188;8.602;2022-09-23T08:28:06;6.72;;;3.30;;
66739;SDS011;53653;52.188;8.602;2022-09-23T08:30:32;7.35;;;3.85;;
66739;SDS011;53653;52.188;8.602;2022-09-23T08:32:58;7.97;;;3.53;;
66739;SDS011;53653;52.188;8.602;2022-09-23T08:35:23;7.90;;;3.60;;
66739;SDS011;53653;52.188;8.602;2022-09-23T08:37:49;7.40;;;3.23;;
66739;SDS011;53653;52.188;8.602;2022-09-23T08:40:14;6.33;;;3.20;;
66739;SDS011;53653;52.188;8.602;2022-09-23T08:42:41;7.32;;;3.80;;
66739;SDS011;53653;52.188;8.602;2022-09-23T08:45:12;7.32;;;3.22;;
66739;SDS011;53653;52.188;8.602;2022-09-23T08:47:47;7.20;;;3.20;;
66739;SDS011;53653;52.188;8.602;2022-09-23T08:50:25;7.27;;;3.10;;
66739;SDS011;53653;52.188;8.602;2022-09-23T08:52:58;8.07;;;3.30;;
66739;SDS011;53653;52.188;8.602;2022-09-23T08:55:38;6.15;;;3.17;;
66739;SDS011;53653;52.188;8.602;2022-09-23T08:58:28;7.95;;;3.72;;
66739;SDS011;53653;52.188;8.602;2022-09-23T09:03:54;8.33;;;3.10;;
66739;SDS011;53653;52.188;8.602;2022-09-23T09:06:31;7.72;;;3.28;;
66739;SDS011;53653;52.188;8.602;2022-09-23T09:09:03;9.32;;;3.42;;
66739;SDS011;53653;52.188;8.602;2022-09-23T09:11:39;7.18;;;3.33;;
66739;SDS011;53653;52.188;8.602;2022-09-23T09:17:05;7.33;;;3.23;;
66739;SDS011;53653;52.188;8.602;2022-09-23T09:27:52;6.82;;;3.25;;
66739;SDS011;53653;52.188;8.602;2022-09-23T09:30:19;6.20;;;2.77;;
66739;SDS011;53653;52.188;8.602;2022-09-23T09:38:09;6.68;;;3.00;;
66739;SDS011;53653;52.188;8.602;2022-09-23T09:40:35;8.80;;;3.40;;
66739;SDS011;53653;52.188;8.602;2022-09-23T09:43:10;6.78;;;2.92;;
66739;SDS011;53653;52.188;8.602;2022-09-23T09:46:37;8.55;;;3.00;;
66739;SDS011;53653;52.188;8.602;2022-09-23T09:48:53;8.18;;;3.10;;
66739;SDS011;53653;52.188;8.602;2022-09-23T09:51:26;8.90;;;3.33;;
66739;SDS011;53653;52.188;8.602;2022-09-23T09:53:52;8.75;;;3.15;;
66739;SDS011;53653;52.188;8.602;2022-09-23T09:56:20;8.45;;;3.00;;
66739;SDS011;53653;52.188;8.602;2022-09-23T09:58:59;6.75;;;3.25;;
66739;SDS011;53653;52.188;8.602;2022-09-23T10:04:42;7.87;;;3.23;;
66739;SDS011;53653;52.188;8.602;2022-09-23T10:07:11;8.80;;;3.50;;
66739;SDS011;53653;52.188;8.602;2022-09-23T10:09:39;9.27;;;3.80;;
66739;SDS011;53653;52.188;8.602;2022-09-23T10:12:13;7.73;;;3.37;;
66739;SDS011;53653;52.188;8.602;2022-09-23T10:14:42;9.48;;;3.45;;
66739;SDS011;53653;52.188;8.602;2022-09-23T10:17:29;7.97;;;3.85;;
66739;SDS011;53653;52.188;8.602;2022-09-23T10:19:58;7.45;;;3.70;;
66739;SDS011;53653;52.188;8.602;2022-09-23T10:22:26;10.45;;;4.15;;
66739;SDS011;53653;52.188;8.602;2022-09-23T10:24:56;6.50;;;3.27;;
66739;SDS011;53653;52.188;8.602;2022-09-23T10:27:28;7.90;;;3.55;;
66739;SDS011;53653;52.188;8.602;2022-09-23T10:29:59;7.35;;;3.70;;
66739;SDS011;53653;52.188;8.602;2022-09-23T10:37:39;9.63;;;3.67;;
66739;SDS011;53653;52.188;8.602;2022-09-23T10:40:15;8.27;;;3.67;;
66739;SDS011;53653;52.188;8.602;2022-09-23T11:00:09;7.55;;;3.53;;
66739;SDS011;53653;52.188;8.602;2022-09-23T11:05:49;7.97;;;3.33;;
66739;SDS011;53653;52.188;8.602;2022-09-23T11:21:56;7.90;;;3.33;;
66739;SDS011;53653;52.188;8.602;2022-09-23T11:37:54;8.30;;;2.55;;
66739;SDS011;53653;52.188;8.602;2022-09-23T11:40:41;6.68;;;2.83;;
66739;SDS011;53653;52.188;8.602;2022-09-23T11:43:14;5.88;;;2.47;;
66739;SDS011;53653;52.188;8.602;2022-09-23T11:45:47;7.93;;;2.80;;
66739;SDS011;53653;52.188;8.602;2022-09-23T11:48:43;7.88;;;2.50;;
66739;SDS011;53653;52.188;8.602;2022-09-23T12:00:00;7.53;;;2.90;;
66739;SDS011;53653;52.188;8.602;2022-09-23T12:05:19;7.95;;;2.92;;
66739;SDS011;53653;52.188;8.602;2022-09-23T12:07:53;6.75;;;2.83;;
66739;SDS011;53653;52.188;8.602;2022-09-23T12:10:25;9.25;;;2.90;;
66739;SDS011;53653;52.188;8.602;2022-09-23T12:18:17;7.53;;;2.53;;
66739;SDS011;53653;52.188;8.602;2022-09-23T12:27:06;7.00;;;2.90;;
66739;SDS011;53653;52.188;8.602;2022-09-23T12:29:35;6.85;;;2.83;;
66739;SDS011;53653;52.188;8.602;2022-09-23T12:32:03;6.93;;;2.80;;
66739;SDS011;53653;52.188;8.602;2022-09-23T12:34:40;8.27;;;3.10;;
66739;SDS011;53653;52.188;8.602;2022-09-23T12:37:13;10.60;;;3.75;;
66739;SDS011;53653;52.188;8.602;2022-09-23T12:39:51;7.23;;;2.77;;
66739;SDS011;53653;52.188;8.602;2022-09-23T12:42:18;12.57;;;4.40;;
66739;SDS011;53653;52.188;8.602;2022-09-23T12:44:46;8.23;;;3.10;;
66739;SDS011;53653;52.188;8.602;2022-09-23T12:49:52;9.15;;;3.15;;
66739;SDS011;53653;52.188;8.602;2022-09-23T12:54:44;11.53;;;2.70;;
66739;SDS011;53653;52.188;8.602;2022-09-23T13:02:41;6.15;;;2.50;;
66739;SDS011;53653;52.188;8.602;2022-09-23T13:05:44;6.97;;;2.60;;
66739;SDS011;53653;52.188;8.602;2022-09-23T13:08:31;6.72;;;2.40;;
66739;SDS011;53653;52.188;8.602;2022-09-23T13:11:00;6.40;;;2.60;;
66739;SDS011;53653;52.188;8.602;2022-09-23T13:13:35;6.50;;;2.47;;
66739;SDS011;53653;52.188;8.602;2022-09-23T13:18:59;6.45;;;2.35;;
66739;SDS011;53653;52.188;8.602;2022-09-23T13:24:33;5.47;;;2.33;;
66739;SDS011;53653;52.188;8.602;2022-09-23T13:29:27;5.67;;;2.47;;
66739;SDS011;53653;52.188;8.602;2022-09-23T13:31:59;5.63;;;2.47;;
66739;SDS011;53653;52.188;8.602;2022-09-23T13:34:27;5.43;;;2.40;;
66739;SDS011;53653;52.188;8.602;2022-09-23T13:36:56;7.03;;;3.30;;
66739;SDS011;53653;52.188;8.602;2022-09-23T13:39:22;8.73;;;3.97;;
66739;SDS011;53653;52.188;8.602;2022-09-23T13:41:52;7.60;;;2.70;;
66739;SDS011;53653;52.188;8.602;2022-09-23T13:44:22;7.82;;;2.55;;
66739;SDS011;53653;52.188;8.602;2022-09-23T13:46:49;7.53;;;2.93;;
66739;SDS011;53653;52.188;8.602;2022-09-23T13:49:26;7.03;;;2.33;;
66739;SDS011;53653;52.188;8.602;2022-09-23T13:51:55;6.88;;;2.50;;
66739;SDS011;53653;52.188;8.602;2022-09-23T13:55:03;5.50;;;2.33;;
66739;SDS011;53653;52.188;8.602;2022-09-23T13:59:47;6.97;;;2.50;;
66739;SDS011;53653;52.188;8.602;2022-09-23T14:02:14;8.13;;;2.90;;
66739;SDS011;53653;52.188;8.602;2022-09-23T14:04:43;7.03;;;2.92;;
66739;SDS011;53653;52.188;8.602;2022-09-23T14:07:11;8.57;;;3.20;;
66739;SDS011;53653;52.188;8.602;2022-09-23T14:09:41;10.77;;;3.05;;
66739;SDS011;53653;52.188;8.602;2022-09-23T14:12:08;6.93;;;3.00;;
66739;SDS011;53653;52.188;8.602;2022-09-23T14:14:35;9.93;;;3.47;;
66739;SDS011;53653;52.188;8.602;2022-09-23T14:17:03;7.57;;;2.90;;
66739;SDS011;53653;52.188;8.602;2022-09-23T14:19:30;7.85;;;3.10;;
66739;SDS011;53653;52.188;8.602;2022-09-23T14:21:56;7.53;;;3.00;;
66739;SDS011;53653;52.188;8.602;2022-09-23T14:26:55;8.17;;;2.93;;
66739;SDS011;53653;52.188;8.602;2022-09-23T14:29:24;6.85;;;2.83;;
66739;SDS011;53653;52.188;8.602;2022-09-23T14:31:58;8.02;;;3.00;;
66739;SDS011;53653;52.188;8.602;2022-09-23T14:34:46;8.38;;;3.05;;
66739;SDS011;53653;52.188;8.602;2022-09-23T14:40:20;7.00;;;3.10;;
66739;SDS011;53653;52.188;8.602;2022-09-23T14:42:49;8.27;;;3.30;;
66739;SDS011;53653;52.188;8.602;2022-09-23T14:45:21;8.52;;;3.20;;
66739;SDS011;53653;52.188;8.602;2022-09-23T14:47:50;7.75;;;3.03;;
66739;SDS011;53653;52.188;8.602;2022-09-23T14:50:36;7.82;;;2.83;;
66739;SDS011;53653;52.188;8.602;2022-09-23T14:55:49;6.70;;;3.53;;
66739;SDS011;53653;52.188;8.602;2022-09-23T14:58:18;9.10;;;2.85;;
66739;SDS011;53653;52.188;8.602;2022-09-23T15:00:50;8.30;;;3.00;;
66739;SDS011;53653;52.188;8.602;2022-09-23T15:03:19;8.90;;;3.03;;
66739;SDS011;53653;52.188;8.602;2022-09-23T15:05:46;7.90;;;3.30;;
66739;SDS011;53653;52.188;8.602;2022-09-23T15:08:22;7.95;;;3.20;;
66739;SDS011;53653;52.188;8.602;2022-09-23T15:10:51;10.70;;;3.05;;
66739;SDS011;53653;52.188;8.602;2022-09-23T15:13:18;7.97;;;3.00;;
66739;SDS011;53653;52.188;8.602;2022-09-23T15:15:47;11.10;;;4.50;;
66739;SDS011;53653;52.188;8.602;2022-09-23T15:18:29;9.52;;;3.25;;
66739;SDS011;53653;52.188;8.602;2022-09-23T15:21:07;9.00;;;3.67;;
66739;SDS011;53653;52.188;8.602;2022-09-23T15:23:42;8.07;;;3.67;;
66739;SDS011;53653;52.188;8.602;2022-09-23T15:26:13;12.90;;;5.40;;
66739;SDS011;53653;52.188;8.602;2022-09-23T15:28:39;16.23;;;7.07;;
66739;SDS011;53653;52.188;8.602;2022-09-23T15:31:09;8.27;;;4.20;;
66739;SDS011;53653;52.188;8.602;2022-09-23T15:33:40;7.60;;;3.70;;
66739;SDS011;53653;52.188;8.602;2022-09-23T15:36:09;6.57;;;3.30;;
66739;SDS011;53653;52.188;8.602;2022-09-23T15:38:41;7.90;;;3.20;;
66739;SDS011;53653;52.188;8.602;2022-09-23T15:41:07;6.60;;;3.17;;
66739;SDS011;53653;52.188;8.602;2022-09-23T15:43:33;8.25;;;3.20;;
66739;SDS011;53653;52.188;8.602;2022-09-23T15:46:00;8.13;;;3.40;;
66739;SDS011;53653;52.188;8.602;2022-09-23T15:48:30;8.10;;;3.20;;
66739;SDS011;53653;52.188;8.602;2022-09-23T15:51:04;6.82;;;3.15;;
66739;SDS011;53653;52.188;8.602;2022-09-23T15:53:31;8.37;;;3.10;;
66739;SDS011;53653;52.188;8.602;2022-09-23T15:55:57;6.88;;;2.90;;
66739;SDS011;53653;52.188;8.602;2022-09-23T15:58:22;9.13;;;4.00;;
66739;SDS011;53653;52.188;8.602;2022-09-23T16:00:52;6.40;;;3.17;;
66739;SDS011;53653;52.188;8.602;2022-09-23T16:03:20;7.73;;;4.43;;
66739;SDS011;53653;52.188;8.602;2022-09-23T16:05:48;11.52;;;4.55;;
66739;SDS011;53653;52.188;8.602;2022-09-23T16:08:14;7.60;;;3.38;;
66739;SDS011;53653;52.188;8.602;2022-09-23T16:10:40;6.47;;;3.28;;
66739;SDS011;53653;52.188;8.602;2022-09-23T16:13:09;8.10;;;3.65;;
66739;SDS011;53653;52.188;8.602;2022-09-23T16:15:36;7.83;;;3.47;;
66739;SDS011;53653;52.188;8.602;2022-09-23T16:18:05;7.13;;;3.65;;
66739;SDS011;53653;52.188;8.602;2022-09-23T16:20:33;11.88;;;4.13;;
66739;SDS011;53653;52.188;8.602;2022-09-23T16:23:02;8.68;;;3.90;;
66739;SDS011;53653;52.188;8.602;2022-09-23T16:25:37;9.85;;;4.05;;
66739;SDS011;53653;52.188;8.602;2022-09-23T16:28:03;9.77;;;4.03;;
66739;SDS011;53653;52.188;8.602;2022-09-23T16:30:29;13.15;;;4.50;;
66739;SDS011;53653;52.188;8.602;2022-09-23T16:32:57;12.37;;;4.17;;
66739;SDS011;53653;52.188;8.602;2022-09-23T16:35:23;11.00;;;4.20;;
66739;SDS011;53653;52.188;8.602;2022-09-23T16:37:51;8.05;;;3.72;;
66739;SDS011;53653;52.188;8.602;2022-09-23T16:40:18;10.60;;;3.83;;
66739;SDS011;53653;52.188;8.602;2022-09-23T16:42:48;10.63;;;4.03;;
66739;SDS011;53653;52.188;8.602;2022-09-23T16:45:16;11.27;;;5.38;;
66739;SDS011;53653;52.188;8.602;2022-09-23T16:47:43;21.33;;;10.13;;
66739;SDS011;53653;52.188;8.602;2022-09-23T16:50:14;13.15;;;6.38;;
66739;SDS011;53653;52.188;8.602;2022-09-23T16:52:40;9.35;;;4.78;;
66739;SDS011;53653;52.188;8.602;2022-09-23T16:55:08;8.47;;;3.20;;
66739;SDS011;53653;52.188;8.602;2022-09-23T16:57:36;6.93;;;3.00;;
66739;SDS011;53653;52.188;8.602;2022-09-23T17:00:03;7.57;;;3.15;;
66739;SDS011;53653;52.188;8.602;2022-09-23T17:02:48;7.63;;;3.35;;
66739;SDS011;53653;52.188;8.602;2022-09-23T17:05:32;9.25;;;3.50;;
66739;SDS011;53653;52.188;8.602;2022-09-23T17:07:58;7.60;;;3.50;;
66739;SDS011;53653;52.188;8.602;2022-09-23T17:10:24;8.68;;;3.60;;
66739;SDS011;53653;52.188;8.602;2022-09-23T17:12:49;9.23;;;3.80;;
66739;SDS011;53653;52.188;8.602;2022-09-23T17:15:18;11.10;;;4.20;;
66739;SDS011;53653;52.188;8.602;2022-09-23T17:17:44;17.25;;;4.50;;
66739;SDS011;53653;52.188;8.602;2022-09-23T17:20:09;6.80;;;3.40;;
66739;SDS011;53653;52.188;8.602;2022-09-23T17:22:37;10.25;;;4.07;;
66739;SDS011;53653;52.188;8.602;2022-09-23T17:25:02;9.47;;;4.60;;
66739;SDS011;53653;52.188;8.602;2022-09-23T17:27:28;9.77;;;4.40;;
66739;SDS011;53653;52.188;8.602;2022-09-23T17:29:55;11.50;;;4.80;;
66739;SDS011;53653;52.188;8.602;2022-09-23T17:32:20;12.27;;;4.73;;
66739;SDS011;53653;52.188;8.602;2022-09-23T17:34:46;10.77;;;4.20;;
66739;SDS011;53653;52.188;8.602;2022-09-23T17:37:11;8.60;;;4.10;;
66739;SDS011;53653;52.188;8.602;2022-09-23T17:39:36;8.53;;;4.10;;
66739;SDS011;53653;52.188;8.602;2022-09-23T17:42:02;10.17;;;4.50;;
66739;SDS011;53653;52.188;8.602;2022-09-23T17:44:29;13.98;;;5.35;;
66739;SDS011;53653;52.188;8.602;2022-09-23T17:46:54;9.37;;;4.80;;
66739;SDS011;53653;52.188;8.602;2022-09-23T17:49:20;9.20;;;4.82;;
66739;SDS011;53653;52.188;8.602;2022-09-23T17:51:45;9.47;;;4.50;;